sensor_id;sensor_type;location;lat;lon;timestamp;P1;durP1;ratioP1;P2;durP2;ratioP2
21202;SDS011;10759;51.982;9.232;2022-11-13T00:02:10;53.95;;;40.70;;
21202;SDS011;10759;51.982;9.232;2022-11-13T00:04:56;47.47;;;40.25;;
21202;SDS011;10759;51.982;9.232;2022-11-13T00:07:42;47.28;;;38.90;;
21202;SDS011;10759;51.982;9.232;2022-11-13T00:10:29;44.60;;;35.15;;
21202;SDS011;10759;51.982;9.232;2022-11-13T00:13:16;35.38;;;30.67;;
21202;SDS011;10759;51.982;9.232;2022-11-13T00:16:05;34.38;;;30.02;;
21202;SDS011;10759;51.982;9.232;2022-11-13T00:18:52;34.25;;;30.83;;
21202;SDS011;10759;51.982;9.232;2022-11-13T00:21:39;36.80;;;32.60;;
21202;SDS011;10759;51.982;9.232;2022-11-13T00:24:26;34.88;;;31.30;;
21202;SDS011;10759;51.982;9.232;2022-11-13T00:27:12;34.13;;;30.67;;
21202;SDS011;10759;51.982;9.232;2022-11-13T00:29:59;31.75;;;28.48;;
21202;SDS011;10759;51.982;9.232;2022-11-13T00:32:47;35.65;;;31.75;;
21202;SDS011;10759;51.982;9.232;2022-11-13T00:35:34;36.03;;;32.08;;
21202;SDS011;10759;51.982;9.232;2022-11-13T00:38:20;37.97;;;30.05;;
21202;SDS011;10759;51.982;9.232;2022-11-13T00:41:07;36.53;;;32.58;;
21202;SDS011;10759;51.982;9.232;2022-11-13T00:43:54;36.83;;;32.28;;
21202;SDS011;10759;51.982;9.232;2022-11-13T00:46:40;36.33;;;32.33;;
21202;SDS011;10759;51.982;9.232;2022-11-13T00:49:28;35.80;;;31.80;;
21202;SDS011;10759;51.982;9.232;2022-11-13T00:52:15;32.95;;;29.52;;
21202;SDS011;10759;51.982;9.232;2022-11-13T00:55:01;36.05;;;32.28;;
21202;SDS011;10759;51.982;9.232;2022-11-13T00:57:48;36.33;;;32.05;;
21202;SDS011;10759;51.982;9.232;2022-11-13T01:00:35;33.00;;;29.40;;
21202;SDS011;10759;51.982;9.232;2022-11-13T01:03:21;44.13;;;33.28;;
21202;SDS011;10759;51.982;9.232;2022-11-13T01:06:11;52.28;;;35.15;;
21202;SDS011;10759;51.982;9.232;2022-11-13T01:08:59;52.65;;;32.35;;
21202;SDS011;10759;51.982;9.232;2022-11-13T01:11:45;44.47;;;31.30;;
21202;SDS011;10759;51.982;9.232;2022-11-13T01:14:32;43.45;;;30.67;;
21202;SDS011;10759;51.982;9.232;2022-11-13T01:17:18;39.97;;;29.85;;
21202;SDS011;10759;51.982;9.232;2022-11-13T01:20:05;34.63;;;28.80;;
21202;SDS011;10759;51.982;9.232;2022-11-13T01:22:53;30.77;;;26.27;;
21202;SDS011;10759;51.982;9.232;2022-11-13T01:25:40;32.67;;;25.95;;
21202;SDS011;10759;51.982;9.232;2022-11-13T01:28:27;31.23;;;24.67;;
21202;SDS011;10759;51.982;9.232;2022-11-13T01:31:15;30.98;;;25.27;;
21202;SDS011;10759;51.982;9.232;2022-11-13T01:34:03;36.13;;;27.95;;
21202;SDS011;10759;51.982;9.232;2022-11-13T01:36:50;36.20;;;24.38;;
21202;SDS011;10759;51.982;9.232;2022-11-13T01:39:38;34.17;;;27.10;;
21202;SDS011;10759;51.982;9.232;2022-11-13T01:42:25;30.23;;;25.00;;
21202;SDS011;10759;51.982;9.232;2022-11-13T01:48:36;34.30;;;25.85;;
21202;SDS011;10759;51.982;9.232;2022-11-13T01:51:25;30.98;;;24.65;;
21202;SDS011;10759;51.982;9.232;2022-11-13T01:54:16;35.92;;;26.98;;
21202;SDS011;10759;51.982;9.232;2022-11-13T01:57:08;61.72;;;30.92;;
21202;SDS011;10759;51.982;9.232;2022-11-13T01:59:57;40.10;;;30.02;;
21202;SDS011;10759;51.982;9.232;2022-11-13T02:02:47;36.08;;;28.40;;
21202;SDS011;10759;51.982;9.232;2022-11-13T02:05:33;50.10;;;30.83;;
21202;SDS011;10759;51.982;9.232;2022-11-13T02:08:20;30.67;;;26.42;;
21202;SDS011;10759;51.982;9.232;2022-11-13T02:11:07;30.70;;;27.35;;
21202;SDS011;10759;51.982;9.232;2022-11-13T02:13:55;53.35;;;30.35;;
21202;SDS011;10759;51.982;9.232;2022-11-13T02:16:44;38.85;;;30.50;;
21202;SDS011;10759;51.982;9.232;2022-11-13T02:19:34;38.67;;;28.42;;
21202;SDS011;10759;51.982;9.232;2022-11-13T02:25:15;34.25;;;28.25;;
21202;SDS011;10759;51.982;9.232;2022-11-13T02:28:05;34.72;;;25.23;;
21202;SDS011;10759;51.982;9.232;2022-11-13T02:30:51;32.28;;;26.70;;
21202;SDS011;10759;51.982;9.232;2022-11-13T02:33:38;27.15;;;22.55;;
21202;SDS011;10759;51.982;9.232;2022-11-13T02:36:25;26.13;;;22.23;;
21202;SDS011;10759;51.982;9.232;2022-11-13T02:39:12;27.65;;;21.63;;
21202;SDS011;10759;51.982;9.232;2022-11-13T02:42:01;24.02;;;18.38;;
21202;SDS011;10759;51.982;9.232;2022-11-13T02:44:48;19.63;;;17.45;;
21202;SDS011;10759;51.982;9.232;2022-11-13T02:47:34;22.27;;;17.70;;
21202;SDS011;10759;51.982;9.232;2022-11-13T02:50:21;23.00;;;18.42;;
21202;SDS011;10759;51.982;9.232;2022-11-13T02:53:08;27.33;;;18.55;;
21202;SDS011;10759;51.982;9.232;2022-11-13T02:55:55;20.60;;;18.50;;
21202;SDS011;10759;51.982;9.232;2022-11-13T02:58:43;24.45;;;18.85;;
21202;SDS011;10759;51.982;9.232;2022-11-13T03:01:30;19.17;;;17.38;;
21202;SDS011;10759;51.982;9.232;2022-11-13T03:04:16;21.17;;;18.73;;
21202;SDS011;10759;51.982;9.232;2022-11-13T03:07:03;20.10;;;17.85;;
21202;SDS011;10759;51.982;9.232;2022-11-13T03:09:50;25.02;;;20.40;;
21202;SDS011;10759;51.982;9.232;2022-11-13T03:12:36;21.35;;;18.73;;
21202;SDS011;10759;51.982;9.232;2022-11-13T03:15:26;28.73;;;21.27;;
21202;SDS011;10759;51.982;9.232;2022-11-13T03:18:13;21.67;;;18.98;;
21202;SDS011;10759;51.982;9.232;2022-11-13T03:21:04;19.50;;;17.63;;
21202;SDS011;10759;51.982;9.232;2022-11-13T03:23:52;20.95;;;18.73;;
21202;SDS011;10759;51.982;9.232;2022-11-13T03:26:39;21.02;;;18.95;;
21202;SDS011;10759;51.982;9.232;2022-11-13T03:29:26;19.55;;;17.17;;
21202;SDS011;10759;51.982;9.232;2022-11-13T03:32:13;19.33;;;17.38;;
21202;SDS011;10759;51.982;9.232;2022-11-13T03:35:01;26.75;;;19.95;;
21202;SDS011;10759;51.982;9.232;2022-11-13T03:37:47;21.52;;;17.52;;
21202;SDS011;10759;51.982;9.232;2022-11-13T03:40:34;19.92;;;17.85;;
21202;SDS011;10759;51.982;9.232;2022-11-13T03:43:21;23.17;;;18.73;;
21202;SDS011;10759;51.982;9.232;2022-11-13T03:46:08;22.50;;;17.00;;
21202;SDS011;10759;51.982;9.232;2022-11-13T03:48:56;18.38;;;16.25;;
21202;SDS011;10759;51.982;9.232;2022-11-13T03:51:43;16.95;;;14.93;;
21202;SDS011;10759;51.982;9.232;2022-11-13T03:54:30;15.35;;;13.85;;
21202;SDS011;10759;51.982;9.232;2022-11-13T03:57:17;16.55;;;14.60;;
21202;SDS011;10759;51.982;9.232;2022-11-13T04:00:04;17.42;;;14.00;;
21202;SDS011;10759;51.982;9.232;2022-11-13T04:02:51;16.63;;;14.93;;
21202;SDS011;10759;51.982;9.232;2022-11-13T04:05:40;13.70;;;12.48;;
21202;SDS011;10759;51.982;9.232;2022-11-13T04:08:27;17.95;;;13.40;;
21202;SDS011;10759;51.982;9.232;2022-11-13T04:11:14;14.68;;;12.35;;
21202;SDS011;10759;51.982;9.232;2022-11-13T04:14:01;15.85;;;14.20;;
21202;SDS011;10759;51.982;9.232;2022-11-13T04:16:47;14.45;;;13.05;;
21202;SDS011;10759;51.982;9.232;2022-11-13T04:19:34;18.13;;;13.50;;
21202;SDS011;10759;51.982;9.232;2022-11-13T04:22:22;18.48;;;13.43;;
21202;SDS011;10759;51.982;9.232;2022-11-13T04:25:09;15.95;;;13.50;;
21202;SDS011;10759;51.982;9.232;2022-11-13T04:27:56;16.00;;;13.85;;
21202;SDS011;10759;51.982;9.232;2022-11-13T04:30:43;14.75;;;13.30;;
21202;SDS011;10759;51.982;9.232;2022-11-13T04:33:29;15.15;;;13.13;;
21202;SDS011;10759;51.982;9.232;2022-11-13T04:36:16;16.15;;;14.45;;
21202;SDS011;10759;51.982;9.232;2022-11-13T04:39:04;14.90;;;13.52;;
21202;SDS011;10759;51.982;9.232;2022-11-13T04:41:51;15.25;;;13.85;;
21202;SDS011;10759;51.982;9.232;2022-11-13T04:44:55;16.05;;;14.35;;
21202;SDS011;10759;51.982;9.232;2022-11-13T04:47:42;16.40;;;14.73;;
21202;SDS011;10759;51.982;9.232;2022-11-13T04:50:28;15.40;;;14.00;;
21202;SDS011;10759;51.982;9.232;2022-11-13T04:53:15;16.58;;;14.82;;
21202;SDS011;10759;51.982;9.232;2022-11-13T04:56:03;14.73;;;13.25;;
21202;SDS011;10759;51.982;9.232;2022-11-13T04:58:50;13.27;;;12.18;;
21202;SDS011;10759;51.982;9.232;2022-11-13T05:01:36;15.02;;;13.63;;
21202;SDS011;10759;51.982;9.232;2022-11-13T05:04:23;16.08;;;14.65;;
21202;SDS011;10759;51.982;9.232;2022-11-13T05:07:10;15.40;;;14.20;;
21202;SDS011;10759;51.982;9.232;2022-11-13T05:09:56;16.08;;;14.63;;
21202;SDS011;10759;51.982;9.232;2022-11-13T05:12:44;21.25;;;15.35;;
21202;SDS011;10759;51.982;9.232;2022-11-13T05:15:31;15.57;;;13.60;;
21202;SDS011;10759;51.982;9.232;2022-11-13T05:18:17;14.38;;;13.25;;
21202;SDS011;10759;51.982;9.232;2022-11-13T05:21:04;18.33;;;16.70;;
21202;SDS011;10759;51.982;9.232;2022-11-13T05:23:52;18.45;;;16.95;;
21202;SDS011;10759;51.982;9.232;2022-11-13T05:26:39;24.92;;;23.02;;
21202;SDS011;10759;51.982;9.232;2022-11-13T05:29:27;20.10;;;18.42;;
21202;SDS011;10759;51.982;9.232;2022-11-13T05:32:14;22.77;;;20.67;;
21202;SDS011;10759;51.982;9.232;2022-11-13T05:35:01;20.38;;;18.73;;
21202;SDS011;10759;51.982;9.232;2022-11-13T05:37:48;19.42;;;17.73;;
21202;SDS011;10759;51.982;9.232;2022-11-13T05:40:34;19.52;;;18.08;;
21202;SDS011;10759;51.982;9.232;2022-11-13T05:43:21;17.65;;;16.25;;
21202;SDS011;10759;51.982;9.232;2022-11-13T05:46:09;18.23;;;16.67;;
21202;SDS011;10759;51.982;9.232;2022-11-13T05:48:58;18.50;;;17.00;;
21202;SDS011;10759;51.982;9.232;2022-11-13T05:51:46;16.73;;;14.48;;
21202;SDS011;10759;51.982;9.232;2022-11-13T05:54:32;17.08;;;15.57;;
21202;SDS011;10759;51.982;9.232;2022-11-13T05:57:19;17.38;;;15.73;;
21202;SDS011;10759;51.982;9.232;2022-11-13T06:00:06;19.67;;;17.85;;
21202;SDS011;10759;51.982;9.232;2022-11-13T06:02:55;57.05;;;39.40;;
21202;SDS011;10759;51.982;9.232;2022-11-13T06:05:42;43.22;;;34.08;;
21202;SDS011;10759;51.982;9.232;2022-11-13T06:08:28;31.70;;;25.80;;
21202;SDS011;10759;51.982;9.232;2022-11-13T06:11:16;37.75;;;29.27;;
21202;SDS011;10759;51.982;9.232;2022-11-13T06:14:04;26.35;;;22.77;;
21202;SDS011;10759;51.982;9.232;2022-11-13T06:16:51;22.30;;;19.92;;
21202;SDS011;10759;51.982;9.232;2022-11-13T06:19:39;21.00;;;18.75;;
21202;SDS011;10759;51.982;9.232;2022-11-13T06:22:26;22.85;;;20.65;;
21202;SDS011;10759;51.982;9.232;2022-11-13T06:25:12;20.92;;;18.85;;
21202;SDS011;10759;51.982;9.232;2022-11-13T06:27:59;21.15;;;18.92;;
21202;SDS011;10759;51.982;9.232;2022-11-13T06:30:46;21.17;;;18.83;;
21202;SDS011;10759;51.982;9.232;2022-11-13T06:33:33;20.42;;;18.63;;
21202;SDS011;10759;51.982;9.232;2022-11-13T06:36:22;19.35;;;17.80;;
21202;SDS011;10759;51.982;9.232;2022-11-13T06:39:11;19.15;;;17.35;;
21202;SDS011;10759;51.982;9.232;2022-11-13T06:41:57;15.77;;;14.48;;
21202;SDS011;10759;51.982;9.232;2022-11-13T06:44:44;13.70;;;12.23;;
21202;SDS011;10759;51.982;9.232;2022-11-13T06:47:31;13.40;;;12.30;;
21202;SDS011;10759;51.982;9.232;2022-11-13T06:50:18;13.85;;;11.20;;
21202;SDS011;10759;51.982;9.232;2022-11-13T06:53:06;15.18;;;10.70;;
21202;SDS011;10759;51.982;9.232;2022-11-13T06:55:53;21.75;;;16.92;;
21202;SDS011;10759;51.982;9.232;2022-11-13T06:58:40;12.95;;;11.85;;
21202;SDS011;10759;51.982;9.232;2022-11-13T07:01:27;23.55;;;17.30;;
21202;SDS011;10759;51.982;9.232;2022-11-13T07:04:14;27.23;;;22.35;;
21202;SDS011;10759;51.982;9.232;2022-11-13T07:07:01;20.50;;;18.80;;
21202;SDS011;10759;51.982;9.232;2022-11-13T07:09:49;22.63;;;20.45;;
21202;SDS011;10759;51.982;9.232;2022-11-13T07:12:36;23.80;;;21.30;;
21202;SDS011;10759;51.982;9.232;2022-11-13T07:15:23;32.20;;;27.27;;
21202;SDS011;10759;51.982;9.232;2022-11-13T07:18:09;25.38;;;22.92;;
21202;SDS011;10759;51.982;9.232;2022-11-13T07:20:56;24.70;;;22.23;;
21202;SDS011;10759;51.982;9.232;2022-11-13T07:23:45;24.15;;;21.95;;
21202;SDS011;10759;51.982;9.232;2022-11-13T07:26:34;25.33;;;22.77;;
21202;SDS011;10759;51.982;9.232;2022-11-13T07:29:21;24.85;;;22.65;;
21202;SDS011;10759;51.982;9.232;2022-11-13T07:32:08;36.83;;;33.72;;
21202;SDS011;10759;51.982;9.232;2022-11-13T07:34:55;60.60;;;55.25;;
21202;SDS011;10759;51.982;9.232;2022-11-13T07:37:41;29.48;;;26.70;;
21202;SDS011;10759;51.982;9.232;2022-11-13T07:40:29;34.00;;;30.55;;
21202;SDS011;10759;51.982;9.232;2022-11-13T07:43:17;32.47;;;29.42;;
21202;SDS011;10759;51.982;9.232;2022-11-13T07:46:03;23.67;;;21.58;;
21202;SDS011;10759;51.982;9.232;2022-11-13T07:48:50;18.17;;;16.88;;
21202;SDS011;10759;51.982;9.232;2022-11-13T07:51:36;22.00;;;19.95;;
21202;SDS011;10759;51.982;9.232;2022-11-13T07:54:23;20.45;;;18.95;;
21202;SDS011;10759;51.982;9.232;2022-11-13T07:57:10;17.70;;;16.40;;
21202;SDS011;10759;51.982;9.232;2022-11-13T07:59:58;20.92;;;19.20;;
21202;SDS011;10759;51.982;9.232;2022-11-13T08:02:45;26.50;;;23.77;;
21202;SDS011;10759;51.982;9.232;2022-11-13T08:05:32;21.17;;;19.42;;
21202;SDS011;10759;51.982;9.232;2022-11-13T08:08:19;22.40;;;20.40;;
21202;SDS011;10759;51.982;9.232;2022-11-13T08:11:06;18.58;;;16.80;;
21202;SDS011;10759;51.982;9.232;2022-11-13T08:13:54;17.77;;;16.38;;
21202;SDS011;10759;51.982;9.232;2022-11-13T08:16:42;17.77;;;16.30;;
21202;SDS011;10759;51.982;9.232;2022-11-13T08:19:30;17.83;;;16.48;;
21202;SDS011;10759;51.982;9.232;2022-11-13T08:22:16;26.10;;;23.50;;
21202;SDS011;10759;51.982;9.232;2022-11-13T08:25:03;24.77;;;22.38;;
21202;SDS011;10759;51.982;9.232;2022-11-13T08:27:51;17.17;;;15.77;;
21202;SDS011;10759;51.982;9.232;2022-11-13T08:30:38;12.73;;;11.80;;
21202;SDS011;10759;51.982;9.232;2022-11-13T08:33:26;10.23;;;9.52;;
21202;SDS011;10759;51.982;9.232;2022-11-13T08:36:13;9.82;;;9.10;;
21202;SDS011;10759;51.982;9.232;2022-11-13T08:39:00;11.25;;;10.45;;
21202;SDS011;10759;51.982;9.232;2022-11-13T08:41:46;12.38;;;11.38;;
21202;SDS011;10759;51.982;9.232;2022-11-13T08:44:34;13.65;;;12.65;;
21202;SDS011;10759;51.982;9.232;2022-11-13T08:47:21;15.32;;;14.13;;
21202;SDS011;10759;51.982;9.232;2022-11-13T08:50:15;16.55;;;15.35;;
21202;SDS011;10759;51.982;9.232;2022-11-13T08:53:01;16.05;;;14.77;;
21202;SDS011;10759;51.982;9.232;2022-11-13T08:55:48;15.73;;;14.43;;
21202;SDS011;10759;51.982;9.232;2022-11-13T08:58:35;15.18;;;13.98;;
21202;SDS011;10759;51.982;9.232;2022-11-13T09:01:22;13.52;;;12.48;;
21202;SDS011;10759;51.982;9.232;2022-11-13T09:04:09;13.00;;;12.00;;
21202;SDS011;10759;51.982;9.232;2022-11-13T09:06:57;12.68;;;11.77;;
21202;SDS011;10759;51.982;9.232;2022-11-13T09:09:44;13.10;;;12.10;;
21202;SDS011;10759;51.982;9.232;2022-11-13T09:12:31;12.32;;;11.43;;
21202;SDS011;10759;51.982;9.232;2022-11-13T09:15:18;12.02;;;10.93;;
21202;SDS011;10759;51.982;9.232;2022-11-13T09:18:08;13.63;;;12.63;;
21202;SDS011;10759;51.982;9.232;2022-11-13T09:20:59;12.13;;;11.23;;
21202;SDS011;10759;51.982;9.232;2022-11-13T09:23:47;11.13;;;10.32;;
21202;SDS011;10759;51.982;9.232;2022-11-13T09:26:35;13.15;;;12.15;;
21202;SDS011;10759;51.982;9.232;2022-11-13T09:29:21;12.23;;;11.23;;
21202;SDS011;10759;51.982;9.232;2022-11-13T09:32:09;11.50;;;10.60;;
21202;SDS011;10759;51.982;9.232;2022-11-13T09:34:56;12.35;;;11.38;;
21202;SDS011;10759;51.982;9.232;2022-11-13T09:37:43;13.32;;;12.18;;
21202;SDS011;10759;51.982;9.232;2022-11-13T09:40:32;18.58;;;16.73;;
21202;SDS011;10759;51.982;9.232;2022-11-13T09:43:23;26.73;;;20.67;;
21202;SDS011;10759;51.982;9.232;2022-11-13T09:46:16;32.47;;;23.70;;
21202;SDS011;10759;51.982;9.232;2022-11-13T09:49:10;16.67;;;14.98;;
21202;SDS011;10759;51.982;9.232;2022-11-13T09:52:01;17.15;;;15.45;;
21202;SDS011;10759;51.982;9.232;2022-11-13T09:54:50;18.30;;;16.52;;
21202;SDS011;10759;51.982;9.232;2022-11-13T09:57:40;26.67;;;21.02;;
21202;SDS011;10759;51.982;9.232;2022-11-13T10:00:33;21.08;;;18.92;;
21202;SDS011;10759;51.982;9.232;2022-11-13T10:03:24;19.45;;;17.35;;
21202;SDS011;10759;51.982;9.232;2022-11-13T10:06:44;16.37;;;14.67;;
21202;SDS011;10759;51.982;9.232;2022-11-13T10:09:43;21.05;;;19.00;;
21202;SDS011;10759;51.982;9.232;2022-11-13T10:12:40;17.17;;;15.68;;
21202;SDS011;10759;51.982;9.232;2022-11-13T10:15:29;15.60;;;14.20;;
21202;SDS011;10759;51.982;9.232;2022-11-13T10:18:18;15.75;;;14.45;;
21202;SDS011;10759;51.982;9.232;2022-11-13T10:21:09;12.40;;;11.50;;
21202;SDS011;10759;51.982;9.232;2022-11-13T10:24:01;11.68;;;10.77;;
21202;SDS011;10759;51.982;9.232;2022-11-13T10:26:57;11.65;;;10.75;;
21202;SDS011;10759;51.982;9.232;2022-11-13T10:29:46;9.55;;;8.75;;
21202;SDS011;10759;51.982;9.232;2022-11-13T10:32:33;10.15;;;9.30;;
21202;SDS011;10759;51.982;9.232;2022-11-13T10:35:33;9.45;;;8.65;;
21202;SDS011;10759;51.982;9.232;2022-11-13T10:38:31;9.02;;;8.43;;
21202;SDS011;10759;51.982;9.232;2022-11-13T10:41:26;8.40;;;7.80;;
21202;SDS011;10759;51.982;9.232;2022-11-13T10:44:17;8.48;;;7.68;;
21202;SDS011;10759;51.982;9.232;2022-11-13T10:47:15;9.10;;;8.23;;
21202;SDS011;10759;51.982;9.232;2022-11-13T10:50:24;8.57;;;7.97;;
21202;SDS011;10759;51.982;9.232;2022-11-13T10:53:13;9.87;;;9.07;;
21202;SDS011;10759;51.982;9.232;2022-11-13T10:56:01;9.38;;;8.65;;
21202;SDS011;10759;51.982;9.232;2022-11-13T10:59:00;8.20;;;7.60;;
21202;SDS011;10759;51.982;9.232;2022-11-13T11:01:49;9.02;;;8.27;;
21202;SDS011;10759;51.982;9.232;2022-11-13T11:04:37;8.63;;;7.93;;
21202;SDS011;10759;51.982;9.232;2022-11-13T11:07:23;8.43;;;7.72;;
21202;SDS011;10759;51.982;9.232;2022-11-13T11:10:21;8.02;;;7.43;;
21202;SDS011;10759;51.982;9.232;2022-11-13T11:13:18;7.55;;;6.95;;
21202;SDS011;10759;51.982;9.232;2022-11-13T11:16:07;7.07;;;6.47;;
21202;SDS011;10759;51.982;9.232;2022-11-13T11:18:56;7.20;;;6.60;;
21202;SDS011;10759;51.982;9.232;2022-11-13T11:21:50;8.50;;;7.80;;
21202;SDS011;10759;51.982;9.232;2022-11-13T11:24:44;10.73;;;9.73;;
21202;SDS011;10759;51.982;9.232;2022-11-13T11:27:36;10.10;;;9.20;;
21202;SDS011;10759;51.982;9.232;2022-11-13T11:30:28;8.00;;;7.22;;
21202;SDS011;10759;51.982;9.232;2022-11-13T11:33:22;6.75;;;6.15;;
21202;SDS011;10759;51.982;9.232;2022-11-13T11:36:14;6.45;;;5.88;;
21202;SDS011;10759;51.982;9.232;2022-11-13T11:39:14;6.15;;;5.65;;
21202;SDS011;10759;51.982;9.232;2022-11-13T11:42:16;7.70;;;7.00;;
21202;SDS011;10759;51.982;9.232;2022-11-13T11:45:09;7.10;;;6.20;;
21202;SDS011;10759;51.982;9.232;2022-11-13T11:48:00;6.65;;;6.15;;
21202;SDS011;10759;51.982;9.232;2022-11-13T11:50:52;6.95;;;6.25;;
21202;SDS011;10759;51.982;9.232;2022-11-13T11:53:47;5.43;;;4.95;;
21202;SDS011;10759;51.982;9.232;2022-11-13T11:56:44;5.68;;;5.18;;
21202;SDS011;10759;51.982;9.232;2022-11-13T11:59:42;5.00;;;4.60;;
21202;SDS011;10759;51.982;9.232;2022-11-13T12:02:48;5.00;;;4.60;;
21202;SDS011;10759;51.982;9.232;2022-11-13T12:05:48;4.80;;;4.38;;
21202;SDS011;10759;51.982;9.232;2022-11-13T12:08:46;4.95;;;4.55;;
21202;SDS011;10759;51.982;9.232;2022-11-13T12:11:38;5.05;;;4.60;;
21202;SDS011;10759;51.982;9.232;2022-11-13T12:14:36;5.60;;;5.10;;
21202;SDS011;10759;51.982;9.232;2022-11-13T12:17:38;5.10;;;4.70;;
21202;SDS011;10759;51.982;9.232;2022-11-13T12:20:35;5.65;;;5.25;;
21202;SDS011;10759;51.982;9.232;2022-11-13T12:23:46;9.98;;;7.82;;
21202;SDS011;10759;51.982;9.232;2022-11-13T12:26:46;6.53;;;5.93;;
21202;SDS011;10759;51.982;9.232;2022-11-13T12:29:41;5.18;;;4.68;;
21202;SDS011;10759;51.982;9.232;2022-11-13T12:32:52;11.20;;;9.75;;
21202;SDS011;10759;51.982;9.232;2022-11-13T12:35:49;5.95;;;5.45;;
21202;SDS011;10759;51.982;9.232;2022-11-13T12:38:40;5.63;;;5.10;;
21202;SDS011;10759;51.982;9.232;2022-11-13T12:41:35;7.03;;;6.40;;
21202;SDS011;10759;51.982;9.232;2022-11-13T12:44:28;6.68;;;6.07;;
21202;SDS011;10759;51.982;9.232;2022-11-13T12:47:27;5.95;;;5.43;;
21202;SDS011;10759;51.982;9.232;2022-11-13T12:50:24;6.13;;;5.63;;
21202;SDS011;10759;51.982;9.232;2022-11-13T12:53:22;6.65;;;5.68;;
21202;SDS011;10759;51.982;9.232;2022-11-13T12:56:12;6.05;;;5.30;;
21202;SDS011;10759;51.982;9.232;2022-11-13T12:59:02;5.70;;;5.28;;
21202;SDS011;10759;51.982;9.232;2022-11-13T13:02:23;5.63;;;5.13;;
21202;SDS011;10759;51.982;9.232;2022-11-13T13:05:29;4.80;;;4.28;;
21202;SDS011;10759;51.982;9.232;2022-11-13T13:11:42;5.88;;;4.38;;
21202;SDS011;10759;51.982;9.232;2022-11-13T13:14:37;7.15;;;5.13;;
21202;SDS011;10759;51.982;9.232;2022-11-13T13:17:37;5.72;;;5.18;;
21202;SDS011;10759;51.982;9.232;2022-11-13T13:20:30;3.50;;;3.20;;
21202;SDS011;10759;51.982;9.232;2022-11-13T13:23:25;4.18;;;3.75;;
21202;SDS011;10759;51.982;9.232;2022-11-13T13:26:13;4.45;;;4.05;;
21202;SDS011;10759;51.982;9.232;2022-11-13T13:29:07;4.20;;;3.80;;
21202;SDS011;10759;51.982;9.232;2022-11-13T13:32:05;4.43;;;4.03;;
21202;SDS011;10759;51.982;9.232;2022-11-13T13:35:10;4.47;;;4.03;;
21202;SDS011;10759;51.982;9.232;2022-11-13T13:38:05;4.15;;;3.85;;
21202;SDS011;10759;51.982;9.232;2022-11-13T13:41:15;4.93;;;4.60;;
21202;SDS011;10759;51.982;9.232;2022-11-13T13:44:17;5.28;;;4.78;;
21202;SDS011;10759;51.982;9.232;2022-11-13T13:47:18;5.80;;;5.00;;
21202;SDS011;10759;51.982;9.232;2022-11-13T13:50:11;6.07;;;5.47;;
21202;SDS011;10759;51.982;9.232;2022-11-13T13:53:01;5.63;;;5.13;;
21202;SDS011;10759;51.982;9.232;2022-11-13T13:55:50;6.45;;;5.85;;
21202;SDS011;10759;51.982;9.232;2022-11-13T13:58:39;5.95;;;5.40;;
21202;SDS011;10759;51.982;9.232;2022-11-13T14:01:27;14.70;;;13.15;;
21202;SDS011;10759;51.982;9.232;2022-11-13T14:04:16;8.70;;;7.90;;
21202;SDS011;10759;51.982;9.232;2022-11-13T14:07:17;6.72;;;5.97;;
21202;SDS011;10759;51.982;9.232;2022-11-13T14:10:07;7.00;;;6.40;;
21202;SDS011;10759;51.982;9.232;2022-11-13T14:13:02;7.07;;;6.38;;
21202;SDS011;10759;51.982;9.232;2022-11-13T14:15:57;7.30;;;6.60;;
21202;SDS011;10759;51.982;9.232;2022-11-13T14:18:45;7.25;;;6.55;;
21202;SDS011;10759;51.982;9.232;2022-11-13T14:21:32;6.85;;;6.25;;
21202;SDS011;10759;51.982;9.232;2022-11-13T14:24:20;8.88;;;7.15;;
21202;SDS011;10759;51.982;9.232;2022-11-13T14:27:11;8.55;;;7.85;;
21202;SDS011;10759;51.982;9.232;2022-11-13T14:30:05;8.90;;;8.10;;
21202;SDS011;10759;51.982;9.232;2022-11-13T14:33:07;8.65;;;7.85;;
21202;SDS011;10759;51.982;9.232;2022-11-13T14:35:56;9.32;;;8.40;;
21202;SDS011;10759;51.982;9.232;2022-11-13T14:38:44;9.80;;;8.95;;
21202;SDS011;10759;51.982;9.232;2022-11-13T14:41:36;9.80;;;8.90;;
21202;SDS011;10759;51.982;9.232;2022-11-13T14:44:25;10.07;;;9.23;;
21202;SDS011;10759;51.982;9.232;2022-11-13T14:47:21;10.98;;;10.05;;
21202;SDS011;10759;51.982;9.232;2022-11-13T14:50:20;13.43;;;10.52;;
21202;SDS011;10759;51.982;9.232;2022-11-13T14:53:09;12.00;;;11.00;;
21202;SDS011;10759;51.982;9.232;2022-11-13T14:55:57;13.68;;;12.30;;
21202;SDS011;10759;51.982;9.232;2022-11-13T14:58:45;14.05;;;12.65;;
21202;SDS011;10759;51.982;9.232;2022-11-13T15:01:32;15.45;;;13.85;;
21202;SDS011;10759;51.982;9.232;2022-11-13T15:04:20;16.92;;;15.18;;
21202;SDS011;10759;51.982;9.232;2022-11-13T15:07:31;19.70;;;17.88;;
21202;SDS011;10759;51.982;9.232;2022-11-13T15:10:20;20.02;;;18.20;;
21202;SDS011;10759;51.982;9.232;2022-11-13T15:13:11;21.00;;;18.92;;
21202;SDS011;10759;51.982;9.232;2022-11-13T15:15:59;21.25;;;19.05;;
21202;SDS011;10759;51.982;9.232;2022-11-13T15:18:46;23.08;;;20.85;;
21202;SDS011;10759;51.982;9.232;2022-11-13T15:21:36;23.80;;;21.40;;
21202;SDS011;10759;51.982;9.232;2022-11-13T15:24:24;24.10;;;21.70;;
21202;SDS011;10759;51.982;9.232;2022-11-13T15:27:12;26.42;;;23.88;;
21202;SDS011;10759;51.982;9.232;2022-11-13T15:29:59;28.30;;;25.50;;
21202;SDS011;10759;51.982;9.232;2022-11-13T15:32:46;29.33;;;26.55;;
21202;SDS011;10759;51.982;9.232;2022-11-13T15:35:37;29.42;;;26.63;;
21202;SDS011;10759;51.982;9.232;2022-11-13T15:38:27;31.90;;;28.52;;
21202;SDS011;10759;51.982;9.232;2022-11-13T15:41:16;31.75;;;28.65;;
21202;SDS011;10759;51.982;9.232;2022-11-13T15:44:06;33.60;;;30.08;;
21202;SDS011;10759;51.982;9.232;2022-11-13T15:46:57;31.95;;;28.70;;
21202;SDS011;10759;51.982;9.232;2022-11-13T15:49:44;32.53;;;29.30;;
21202;SDS011;10759;51.982;9.232;2022-11-13T15:52:51;31.77;;;28.70;;
21202;SDS011;10759;51.982;9.232;2022-11-13T15:55:39;31.77;;;28.58;;
21202;SDS011;10759;51.982;9.232;2022-11-13T15:58:26;34.17;;;30.77;;
21202;SDS011;10759;51.982;9.232;2022-11-13T16:01:18;37.67;;;32.90;;
21202;SDS011;10759;51.982;9.232;2022-11-13T16:04:05;33.28;;;29.92;;
21202;SDS011;10759;51.982;9.232;2022-11-13T16:06:52;34.30;;;30.83;;
21202;SDS011;10759;51.982;9.232;2022-11-13T16:09:38;33.90;;;30.25;;
21202;SDS011;10759;51.982;9.232;2022-11-13T16:12:26;33.15;;;29.75;;
21202;SDS011;10759;51.982;9.232;2022-11-13T16:15:13;32.45;;;29.35;;
21202;SDS011;10759;51.982;9.232;2022-11-13T16:18:01;35.45;;;31.98;;
21202;SDS011;10759;51.982;9.232;2022-11-13T16:20:48;33.67;;;30.27;;
21202;SDS011;10759;51.982;9.232;2022-11-13T16:23:34;34.63;;;31.15;;
21202;SDS011;10759;51.982;9.232;2022-11-13T16:26:21;34.05;;;30.60;;
21202;SDS011;10759;51.982;9.232;2022-11-13T16:29:14;33.00;;;29.75;;
21202;SDS011;10759;51.982;9.232;2022-11-13T16:32:04;34.92;;;31.20;;
21202;SDS011;10759;51.982;9.232;2022-11-13T16:34:51;34.15;;;30.55;;
21202;SDS011;10759;51.982;9.232;2022-11-13T16:37:37;35.35;;;31.83;;
21202;SDS011;10759;51.982;9.232;2022-11-13T16:40:24;34.72;;;31.10;;
21202;SDS011;10759;51.982;9.232;2022-11-13T16:43:12;33.13;;;29.85;;
21202;SDS011;10759;51.982;9.232;2022-11-13T16:46:00;33.42;;;30.10;;
21202;SDS011;10759;51.982;9.232;2022-11-13T16:48:48;33.13;;;29.67;;
21202;SDS011;10759;51.982;9.232;2022-11-13T16:51:34;32.80;;;29.67;;